sensor_id;sensor_type;location;lat;lon;timestamp;P1;durP1;ratioP1;P2;durP2;ratioP2
1350;SDS011;669;50.206;9.998;2023-02-28T00:01:28;3.60;;;3.30;;
1350;SDS011;669;50.206;9.998;2023-02-28T00:03:57;2.47;;;2.27;;
1350;SDS011;669;50.206;9.998;2023-02-28T00:06:26;3.97;;;3.13;;
1350;SDS011;669;50.206;9.998;2023-02-28T00:08:54;4.30;;;3.90;;
1350;SDS011;669;50.206;9.998;2023-02-28T00:11:22;3.97;;;3.67;;
1350;SDS011;669;50.206;9.998;2023-02-28T00:13:50;3.30;;;3.00;;
1350;SDS011;669;50.206;9.998;2023-02-28T00:16:19;4.17;;;3.00;;
1350;SDS011;669;50.206;9.998;2023-02-28T00:18:48;3.43;;;3.23;;
1350;SDS011;669;50.206;9.998;2023-02-28T00:21:17;3.77;;;2.87;;
1350;SDS011;669;50.206;9.998;2023-02-28T00:23:46;4.33;;;2.80;;
1350;SDS011;669;50.206;9.998;2023-02-28T00:26:14;5.80;;;3.37;;
1350;SDS011;669;50.206;9.998;2023-02-28T00:28:44;6.23;;;3.53;;
1350;SDS011;669;50.206;9.998;2023-02-28T00:31:12;6.13;;;3.40;;
1350;SDS011;669;50.206;9.998;2023-02-28T00:33:40;3.90;;;3.43;;
1350;SDS011;669;50.206;9.998;2023-02-28T00:36:09;3.43;;;3.03;;
1350;SDS011;669;50.206;9.998;2023-02-28T00:38:38;4.00;;;3.50;;
1350;SDS011;669;50.206;9.998;2023-02-28T00:41:09;3.87;;;3.10;;
1350;SDS011;669;50.206;9.998;2023-02-28T00:43:37;3.97;;;3.20;;
1350;SDS011;669;50.206;9.998;2023-02-28T00:46:06;4.90;;;3.60;;
1350;SDS011;669;50.206;9.998;2023-02-28T00:48:34;4.00;;;3.70;;
1350;SDS011;669;50.206;9.998;2023-02-28T00:51:03;4.03;;;3.50;;
1350;SDS011;669;50.206;9.998;2023-02-28T00:53:32;4.43;;;4.03;;
1350;SDS011;669;50.206;9.998;2023-02-28T00:56:00;4.97;;;4.10;;
1350;SDS011;669;50.206;9.998;2023-02-28T00:58:29;4.33;;;3.37;;
1350;SDS011;669;50.206;9.998;2023-02-28T01:00:57;4.13;;;3.73;;
1350;SDS011;669;50.206;9.998;2023-02-28T01:03:26;3.80;;;3.50;;
1350;SDS011;669;50.206;9.998;2023-02-28T01:05:54;4.37;;;3.97;;
1350;SDS011;669;50.206;9.998;2023-02-28T01:08:22;3.63;;;3.33;;
1350;SDS011;669;50.206;9.998;2023-02-28T01:10:52;3.57;;;3.27;;
1350;SDS011;669;50.206;9.998;2023-02-28T01:13:20;7.47;;;5.57;;
1350;SDS011;669;50.206;9.998;2023-02-28T01:15:51;6.13;;;4.00;;
1350;SDS011;669;50.206;9.998;2023-02-28T01:18:22;5.13;;;3.50;;
1350;SDS011;669;50.206;9.998;2023-02-28T01:20:50;4.63;;;4.03;;
1350;SDS011;669;50.206;9.998;2023-02-28T01:23:19;4.40;;;3.50;;
1350;SDS011;669;50.206;9.998;2023-02-28T01:25:47;5.93;;;3.40;;
1350;SDS011;669;50.206;9.998;2023-02-28T01:28:16;3.73;;;2.93;;
1350;SDS011;669;50.206;9.998;2023-02-28T01:30:47;4.00;;;3.60;;
1350;SDS011;669;50.206;9.998;2023-02-28T01:33:17;3.60;;;3.30;;
1350;SDS011;669;50.206;9.998;2023-02-28T01:35:44;4.20;;;3.60;;
1350;SDS011;669;50.206;9.998;2023-02-28T01:38:12;4.07;;;3.23;;
1350;SDS011;669;50.206;9.998;2023-02-28T01:40:47;5.00;;;4.50;;
1350;SDS011;669;50.206;9.998;2023-02-28T01:43:18;4.57;;;3.83;;
1350;SDS011;669;50.206;9.998;2023-02-28T01:45:48;4.03;;;3.13;;
1350;SDS011;669;50.206;9.998;2023-02-28T01:48:18;4.63;;;3.13;;
1350;SDS011;669;50.206;9.998;2023-02-28T01:50:48;3.30;;;3.10;;
1350;SDS011;669;50.206;9.998;2023-02-28T01:53:17;3.33;;;3.13;;
1350;SDS011;669;50.206;9.998;2023-02-28T01:55:49;4.87;;;4.30;;
1350;SDS011;669;50.206;9.998;2023-02-28T01:58:18;4.63;;;3.47;;
1350;SDS011;669;50.206;9.998;2023-02-28T02:00:47;3.73;;;3.43;;
1350;SDS011;669;50.206;9.998;2023-02-28T02:03:16;3.40;;;3.10;;
1350;SDS011;669;50.206;9.998;2023-02-28T02:05:46;3.43;;;3.13;;
1350;SDS011;669;50.206;9.998;2023-02-28T02:08:15;2.90;;;2.70;;
1350;SDS011;669;50.206;9.998;2023-02-28T02:10:46;2.80;;;2.60;;
1350;SDS011;669;50.206;9.998;2023-02-28T02:13:26;3.77;;;3.40;;
1350;SDS011;669;50.206;9.998;2023-02-28T02:16:26;5.50;;;5.00;;
1350;SDS011;669;50.206;9.998;2023-02-28T02:19:12;4.07;;;3.50;;
1350;SDS011;669;50.206;9.998;2023-02-28T02:21:58;3.00;;;2.80;;
1350;SDS011;669;50.206;9.998;2023-02-28T02:24:48;4.90;;;3.30;;
1350;SDS011;669;50.206;9.998;2023-02-28T02:30:42;3.50;;;3.20;;
1350;SDS011;669;50.206;9.998;2023-02-28T02:33:30;5.00;;;2.97;;
1350;SDS011;669;50.206;9.998;2023-02-28T02:36:26;2.77;;;2.57;;
1350;SDS011;669;50.206;9.998;2023-02-28T02:38:58;2.97;;;2.77;;
1350;SDS011;669;50.206;9.998;2023-02-28T02:41:33;2.40;;;2.20;;
1350;SDS011;669;50.206;9.998;2023-02-28T02:44:08;2.67;;;2.47;;
1350;SDS011;669;50.206;9.998;2023-02-28T02:46:41;2.57;;;2.37;;
1350;SDS011;669;50.206;9.998;2023-02-28T02:49:12;3.63;;;3.30;;
1350;SDS011;669;50.206;9.998;2023-02-28T02:51:45;3.43;;;3.10;;
1350;SDS011;669;50.206;9.998;2023-02-28T02:54:15;4.47;;;3.77;;
1350;SDS011;669;50.206;9.998;2023-02-28T02:56:47;4.53;;;3.20;;
1350;SDS011;669;50.206;9.998;2023-02-28T02:59:17;4.13;;;3.20;;
1350;SDS011;669;50.206;9.998;2023-02-28T03:01:50;3.20;;;2.83;;
1350;SDS011;669;50.206;9.998;2023-02-28T03:04:22;4.93;;;3.30;;
1350;SDS011;669;50.206;9.998;2023-02-28T03:06:53;4.50;;;3.27;;
1350;SDS011;669;50.206;9.998;2023-02-28T03:09:22;4.10;;;3.07;;
1350;SDS011;669;50.206;9.998;2023-02-28T03:11:51;2.67;;;2.47;;
1350;SDS011;669;50.206;9.998;2023-02-28T03:14:30;4.97;;;2.90;;
1350;SDS011;669;50.206;9.998;2023-02-28T03:17:18;3.00;;;2.70;;
1350;SDS011;669;50.206;9.998;2023-02-28T03:20:01;3.03;;;2.80;;
1350;SDS011;669;50.206;9.998;2023-02-28T03:22:43;3.47;;;3.17;;
1350;SDS011;669;50.206;9.998;2023-02-28T03:25:20;3.13;;;2.83;;
1350;SDS011;669;50.206;9.998;2023-02-28T03:28:00;4.10;;;2.30;;
1350;SDS011;669;50.206;9.998;2023-02-28T03:30:37;2.90;;;2.60;;
1350;SDS011;669;50.206;9.998;2023-02-28T03:33:10;3.30;;;2.93;;
1350;SDS011;669;50.206;9.998;2023-02-28T03:35:42;2.87;;;2.60;;
1350;SDS011;669;50.206;9.998;2023-02-28T03:38:15;3.07;;;2.87;;
1350;SDS011;669;50.206;9.998;2023-02-28T03:40:48;2.80;;;2.60;;
1350;SDS011;669;50.206;9.998;2023-02-28T03:43:20;4.23;;;3.83;;
1350;SDS011;669;50.206;9.998;2023-02-28T03:45:51;3.33;;;3.03;;
1350;SDS011;669;50.206;9.998;2023-02-28T03:48:23;2.87;;;2.57;;
1350;SDS011;669;50.206;9.998;2023-02-28T03:50:55;3.87;;;3.13;;
1350;SDS011;669;50.206;9.998;2023-02-28T03:53:29;4.30;;;3.60;;
1350;SDS011;669;50.206;9.998;2023-02-28T03:56:00;2.93;;;2.63;;
1350;SDS011;669;50.206;9.998;2023-02-28T03:58:35;3.13;;;2.87;;
1350;SDS011;669;50.206;9.998;2023-02-28T04:01:10;15.83;;;3.30;;
1350;SDS011;669;50.206;9.998;2023-02-28T04:03:42;4.20;;;3.33;;
1350;SDS011;669;50.206;9.998;2023-02-28T04:06:13;5.07;;;2.87;;
1350;SDS011;669;50.206;9.998;2023-02-28T04:08:45;3.30;;;2.83;;
1350;SDS011;669;50.206;9.998;2023-02-28T04:11:16;5.03;;;3.17;;
1350;SDS011;669;50.206;9.998;2023-02-28T04:13:48;3.40;;;3.10;;
1350;SDS011;669;50.206;9.998;2023-02-28T04:16:16;4.97;;;3.10;;
1350;SDS011;669;50.206;9.998;2023-02-28T04:18:59;3.47;;;2.90;;
1350;SDS011;669;50.206;9.998;2023-02-28T04:21:29;3.83;;;3.43;;
1350;SDS011;669;50.206;9.998;2023-02-28T04:23:59;4.27;;;3.57;;
1350;SDS011;669;50.206;9.998;2023-02-28T04:26:28;3.87;;;2.80;;
1350;SDS011;669;50.206;9.998;2023-02-28T04:28:57;4.53;;;3.40;;
1350;SDS011;669;50.206;9.998;2023-02-28T04:31:25;2.87;;;2.60;;
1350;SDS011;669;50.206;9.998;2023-02-28T04:33:54;4.57;;;2.70;;
1350;SDS011;669;50.206;9.998;2023-02-28T04:36:22;4.60;;;3.40;;
1350;SDS011;669;50.206;9.998;2023-02-28T04:38:50;4.17;;;2.90;;
1350;SDS011;669;50.206;9.998;2023-02-28T04:41:19;3.93;;;3.20;;
1350;SDS011;669;50.206;9.998;2023-02-28T04:43:50;3.67;;;3.37;;
1350;SDS011;669;50.206;9.998;2023-02-28T04:46:18;4.77;;;3.50;;
1350;SDS011;669;50.206;9.998;2023-02-28T04:48:47;4.97;;;3.20;;
1350;SDS011;669;50.206;9.998;2023-02-28T04:51:16;3.60;;;3.30;;
1350;SDS011;669;50.206;9.998;2023-02-28T04:53:45;4.70;;;2.83;;
1350;SDS011;669;50.206;9.998;2023-02-28T04:56:14;4.50;;;3.53;;
1350;SDS011;669;50.206;9.998;2023-02-28T04:58:45;5.20;;;3.43;;
1350;SDS011;669;50.206;9.998;2023-02-28T05:01:19;7.07;;;3.27;;
1350;SDS011;669;50.206;9.998;2023-02-28T05:03:49;3.87;;;3.57;;
1350;SDS011;669;50.206;9.998;2023-02-28T05:06:17;3.63;;;3.07;;
1350;SDS011;669;50.206;9.998;2023-02-28T05:08:49;3.83;;;3.53;;
1350;SDS011;669;50.206;9.998;2023-02-28T05:11:19;3.73;;;2.53;;
1350;SDS011;669;50.206;9.998;2023-02-28T05:13:49;3.50;;;3.20;;
1350;SDS011;669;50.206;9.998;2023-02-28T05:16:18;4.13;;;3.80;;
1350;SDS011;669;50.206;9.998;2023-02-28T05:18:46;4.30;;;3.80;;
1350;SDS011;669;50.206;9.998;2023-02-28T05:21:22;3.77;;;3.47;;
1350;SDS011;669;50.206;9.998;2023-02-28T05:23:52;4.47;;;3.10;;
1350;SDS011;669;50.206;9.998;2023-02-28T05:26:21;4.50;;;3.13;;
1350;SDS011;669;50.206;9.998;2023-02-28T05:28:51;4.40;;;3.10;;
1350;SDS011;669;50.206;9.998;2023-02-28T05:31:19;4.50;;;3.27;;
1350;SDS011;669;50.206;9.998;2023-02-28T05:33:47;3.77;;;3.20;;
1350;SDS011;669;50.206;9.998;2023-02-28T05:36:15;3.27;;;2.97;;
1350;SDS011;669;50.206;9.998;2023-02-28T05:38:43;4.67;;;4.03;;
1350;SDS011;669;50.206;9.998;2023-02-28T05:41:13;4.27;;;3.40;;
1350;SDS011;669;50.206;9.998;2023-02-28T05:43:41;7.37;;;3.70;;
1350;SDS011;669;50.206;9.998;2023-02-28T05:46:11;4.90;;;3.10;;
1350;SDS011;669;50.206;9.998;2023-02-28T05:48:40;3.40;;;3.13;;
1350;SDS011;669;50.206;9.998;2023-02-28T05:51:09;3.60;;;2.97;;
1350;SDS011;669;50.206;9.998;2023-02-28T05:53:36;5.83;;;3.53;;
1350;SDS011;669;50.206;9.998;2023-02-28T05:56:04;5.87;;;3.43;;
1350;SDS011;669;50.206;9.998;2023-02-28T05:58:33;4.93;;;3.57;;
1350;SDS011;669;50.206;9.998;2023-02-28T06:01:11;4.47;;;3.43;;
1350;SDS011;669;50.206;9.998;2023-02-28T06:03:49;5.50;;;4.10;;
1350;SDS011;669;50.206;9.998;2023-02-28T06:06:17;4.70;;;4.00;;
1350;SDS011;669;50.206;9.998;2023-02-28T06:08:45;3.80;;;3.30;;
1350;SDS011;669;50.206;9.998;2023-02-28T06:11:13;4.70;;;3.80;;
1350;SDS011;669;50.206;9.998;2023-02-28T06:13:41;5.60;;;3.57;;
1350;SDS011;669;50.206;9.998;2023-02-28T06:16:09;5.20;;;3.73;;
1350;SDS011;669;50.206;9.998;2023-02-28T06:18:39;3.83;;;2.93;;
1350;SDS011;669;50.206;9.998;2023-02-28T06:21:07;3.60;;;3.30;;
1350;SDS011;669;50.206;9.998;2023-02-28T06:23:35;4.80;;;3.57;;
1350;SDS011;669;50.206;9.998;2023-02-28T06:26:03;4.20;;;3.80;;
1350;SDS011;669;50.206;9.998;2023-02-28T06:28:31;4.27;;;3.70;;
1350;SDS011;669;50.206;9.998;2023-02-28T06:30:59;4.73;;;3.80;;
1350;SDS011;669;50.206;9.998;2023-02-28T06:33:34;6.13;;;3.87;;
1350;SDS011;669;50.206;9.998;2023-02-28T06:36:03;4.53;;;4.13;;
1350;SDS011;669;50.206;9.998;2023-02-28T06:38:32;7.10;;;4.50;;
1350;SDS011;669;50.206;9.998;2023-02-28T06:41:00;6.73;;;3.93;;
1350;SDS011;669;50.206;9.998;2023-02-28T06:43:30;7.47;;;4.87;;
1350;SDS011;669;50.206;9.998;2023-02-28T06:46:00;4.87;;;3.90;;
1350;SDS011;669;50.206;9.998;2023-02-28T06:48:29;7.30;;;5.20;;
1350;SDS011;669;50.206;9.998;2023-02-28T06:51:05;5.43;;;4.20;;
1350;SDS011;669;50.206;9.998;2023-02-28T06:53:35;6.37;;;4.60;;
1350;SDS011;669;50.206;9.998;2023-02-28T06:56:04;5.03;;;4.50;;
1350;SDS011;669;50.206;9.998;2023-02-28T06:58:33;4.23;;;3.80;;
1350;SDS011;669;50.206;9.998;2023-02-28T07:01:01;6.07;;;4.20;;
1350;SDS011;669;50.206;9.998;2023-02-28T07:03:30;7.80;;;4.60;;
1350;SDS011;669;50.206;9.998;2023-02-28T07:05:59;6.40;;;4.70;;
1350;SDS011;669;50.206;9.998;2023-02-28T07:08:29;5.73;;;4.20;;
1350;SDS011;669;50.206;9.998;2023-02-28T07:10:58;6.60;;;4.77;;
1350;SDS011;669;50.206;9.998;2023-02-28T07:13:26;9.10;;;4.73;;
1350;SDS011;669;50.206;9.998;2023-02-28T07:15:54;5.07;;;4.43;;
1350;SDS011;669;50.206;9.998;2023-02-28T07:18:23;9.10;;;4.00;;
1350;SDS011;669;50.206;9.998;2023-02-28T07:20:52;6.70;;;4.90;;
1350;SDS011;669;50.206;9.998;2023-02-28T07:23:20;4.73;;;4.20;;
1350;SDS011;669;50.206;9.998;2023-02-28T07:25:50;4.70;;;4.30;;
1350;SDS011;669;50.206;9.998;2023-02-28T07:28:18;5.27;;;4.73;;
1350;SDS011;669;50.206;9.998;2023-02-28T07:30:46;5.20;;;4.63;;
1350;SDS011;669;50.206;9.998;2023-02-28T07:33:14;4.87;;;4.37;;
1350;SDS011;669;50.206;9.998;2023-02-28T07:35:42;5.60;;;4.50;;
1350;SDS011;669;50.206;9.998;2023-02-28T07:38:11;5.50;;;4.30;;
1350;SDS011;669;50.206;9.998;2023-02-28T07:40:40;6.00;;;5.13;;
1350;SDS011;669;50.206;9.998;2023-02-28T07:43:09;5.60;;;5.03;;
1350;SDS011;669;50.206;9.998;2023-02-28T07:45:37;4.20;;;3.73;;
1350;SDS011;669;50.206;9.998;2023-02-28T07:48:05;7.50;;;4.77;;
1350;SDS011;669;50.206;9.998;2023-02-28T07:50:36;5.17;;;4.60;;
1350;SDS011;669;50.206;9.998;2023-02-28T07:53:04;6.40;;;4.77;;
1350;SDS011;669;50.206;9.998;2023-02-28T07:55:31;5.90;;;4.70;;
1350;SDS011;669;50.206;9.998;2023-02-28T07:57:59;4.70;;;4.30;;
1350;SDS011;669;50.206;9.998;2023-02-28T08:00:29;5.67;;;5.10;;
1350;SDS011;669;50.206;9.998;2023-02-28T08:02:58;5.33;;;4.80;;
1350;SDS011;669;50.206;9.998;2023-02-28T08:05:26;4.47;;;4.13;;
1350;SDS011;669;50.206;9.998;2023-02-28T08:07:54;5.80;;;4.97;;
1350;SDS011;669;50.206;9.998;2023-02-28T08:10:22;5.23;;;4.50;;
1350;SDS011;669;50.206;9.998;2023-02-28T08:12:50;5.03;;;4.57;;
1350;SDS011;669;50.206;9.998;2023-02-28T08:15:18;4.77;;;4.37;;
1350;SDS011;669;50.206;9.998;2023-02-28T08:17:47;6.07;;;4.50;;
1350;SDS011;669;50.206;9.998;2023-02-28T08:20:15;5.13;;;4.60;;
1350;SDS011;669;50.206;9.998;2023-02-28T08:22:43;5.03;;;4.53;;
1350;SDS011;669;50.206;9.998;2023-02-28T08:25:11;5.93;;;5.13;;
1350;SDS011;669;50.206;9.998;2023-02-28T08:27:39;5.93;;;5.10;;
1350;SDS011;669;50.206;9.998;2023-02-28T08:30:08;5.70;;;5.20;;
1350;SDS011;669;50.206;9.998;2023-02-28T08:32:38;7.20;;;5.43;;
1350;SDS011;669;50.206;9.998;2023-02-28T08:35:08;5.77;;;5.27;;
1350;SDS011;669;50.206;9.998;2023-02-28T08:37:36;6.70;;;5.10;;
1350;SDS011;669;50.206;9.998;2023-02-28T08:40:05;6.70;;;4.90;;
1350;SDS011;669;50.206;9.998;2023-02-28T08:42:34;6.63;;;4.90;;
1350;SDS011;669;50.206;9.998;2023-02-28T08:45:02;7.40;;;5.63;;
1350;SDS011;669;50.206;9.998;2023-02-28T08:47:30;4.97;;;4.57;;
1350;SDS011;669;50.206;9.998;2023-02-28T08:49:59;8.07;;;5.47;;
1350;SDS011;669;50.206;9.998;2023-02-28T08:52:28;12.17;;;5.93;;
1350;SDS011;669;50.206;9.998;2023-02-28T08:54:56;6.93;;;5.53;;
1350;SDS011;669;50.206;9.998;2023-02-28T08:57:24;8.67;;;5.67;;
1350;SDS011;669;50.206;9.998;2023-02-28T08:59:53;7.63;;;5.03;;
1350;SDS011;669;50.206;9.998;2023-02-28T09:02:21;6.30;;;5.60;;
1350;SDS011;669;50.206;9.998;2023-02-28T09:04:49;9.60;;;5.13;;
1350;SDS011;669;50.206;9.998;2023-02-28T09:07:17;6.10;;;5.40;;
1350;SDS011;669;50.206;9.998;2023-02-28T09:09:47;7.93;;;6.30;;
1350;SDS011;669;50.206;9.998;2023-02-28T09:12:21;6.27;;;5.33;;
1350;SDS011;669;50.206;9.998;2023-02-28T09:14:49;6.33;;;5.70;;
1350;SDS011;669;50.206;9.998;2023-02-28T09:17:17;10.90;;;5.53;;
1350;SDS011;669;50.206;9.998;2023-02-28T09:19:47;7.63;;;5.27;;
1350;SDS011;669;50.206;9.998;2023-02-28T09:22:15;8.90;;;5.60;;
1350;SDS011;669;50.206;9.998;2023-02-28T09:24:43;5.10;;;4.60;;
1350;SDS011;669;50.206;9.998;2023-02-28T09:27:13;5.73;;;5.10;;
1350;SDS011;669;50.206;9.998;2023-02-28T09:29:41;7.47;;;5.67;;
1350;SDS011;669;50.206;9.998;2023-02-28T09:32:08;5.33;;;4.83;;
1350;SDS011;669;50.206;9.998;2023-02-28T09:34:36;6.10;;;5.50;;
1350;SDS011;669;50.206;9.998;2023-02-28T09:37:05;5.40;;;4.90;;
1350;SDS011;669;50.206;9.998;2023-02-28T09:39:33;8.67;;;5.40;;
1350;SDS011;669;50.206;9.998;2023-02-28T09:42:01;6.57;;;4.63;;
1350;SDS011;669;50.206;9.998;2023-02-28T09:44:33;8.00;;;6.50;;
1350;SDS011;669;50.206;9.998;2023-02-28T09:47:05;6.53;;;5.83;;
1350;SDS011;669;50.206;9.998;2023-02-28T09:49:40;7.37;;;5.67;;
1350;SDS011;669;50.206;9.998;2023-02-28T09:52:14;5.87;;;5.30;;
1350;SDS011;669;50.206;9.998;2023-02-28T09:54:45;5.87;;;5.27;;
1350;SDS011;669;50.206;9.998;2023-02-28T09:57:15;6.43;;;5.53;;
1350;SDS011;669;50.206;9.998;2023-02-28T09:59:51;6.77;;;5.13;;
1350;SDS011;669;50.206;9.998;2023-02-28T10:02:41;6.80;;;6.10;;
1350;SDS011;669;50.206;9.998;2023-02-28T10:05:34;6.33;;;5.73;;
1350;SDS011;669;50.206;9.998;2023-02-28T10:08:10;6.13;;;5.53;;
1350;SDS011;669;50.206;9.998;2023-02-28T10:10:42;6.03;;;4.93;;
1350;SDS011;669;50.206;9.998;2023-02-28T10:13:13;4.73;;;4.33;;
1350;SDS011;669;50.206;9.998;2023-02-28T10:15:50;6.00;;;4.90;;
1350;SDS011;669;50.206;9.998;2023-02-28T10:18:23;6.00;;;4.83;;
1350;SDS011;669;50.206;9.998;2023-02-28T10:20:54;6.60;;;4.40;;
1350;SDS011;669;50.206;9.998;2023-02-28T10:23:24;6.57;;;4.87;;
1350;SDS011;669;50.206;9.998;2023-02-28T10:25:57;7.60;;;4.87;;
1350;SDS011;669;50.206;9.998;2023-02-28T10:28:28;7.60;;;4.47;;
1350;SDS011;669;50.206;9.998;2023-02-28T10:30:58;6.40;;;5.30;;
1350;SDS011;669;50.206;9.998;2023-02-28T10:33:28;5.13;;;4.67;;
1350;SDS011;669;50.206;9.998;2023-02-28T10:35:58;6.20;;;5.60;;
1350;SDS011;669;50.206;9.998;2023-02-28T10:38:27;6.03;;;5.30;;
1350;SDS011;669;50.206;9.998;2023-02-28T10:41:05;6.50;;;4.87;;
1350;SDS011;669;50.206;9.998;2023-02-28T10:43:35;6.27;;;5.63;;
1350;SDS011;669;50.206;9.998;2023-02-28T10:46:09;5.00;;;4.40;;
1350;SDS011;669;50.206;9.998;2023-02-28T10:48:42;6.83;;;6.10;;
1350;SDS011;669;50.206;9.998;2023-02-28T10:51:14;9.27;;;5.97;;
1350;SDS011;669;50.206;9.998;2023-02-28T10:53:50;10.20;;;6.20;;
1350;SDS011;669;50.206;9.998;2023-02-28T10:56:27;8.63;;;6.40;;
1350;SDS011;669;50.206;9.998;2023-02-28T10:58:57;6.30;;;5.33;;
1350;SDS011;669;50.206;9.998;2023-02-28T11:01:36;7.07;;;5.40;;
1350;SDS011;669;50.206;9.998;2023-02-28T11:04:16;5.47;;;4.97;;
1350;SDS011;669;50.206;9.998;2023-02-28T11:06:45;7.13;;;4.80;;
1350;SDS011;669;50.206;9.998;2023-02-28T11:09:19;5.87;;;5.20;;
1350;SDS011;669;50.206;9.998;2023-02-28T11:11:52;5.50;;;5.00;;
1350;SDS011;669;50.206;9.998;2023-02-28T11:14:20;6.93;;;5.27;;
1350;SDS011;669;50.206;9.998;2023-02-28T11:16:52;6.10;;;5.17;;
1350;SDS011;669;50.206;9.998;2023-02-28T11:19:23;6.13;;;5.33;;
1350;SDS011;669;50.206;9.998;2023-02-28T11:21:54;6.97;;;5.17;;
1350;SDS011;669;50.206;9.998;2023-02-28T11:24:24;6.07;;;5.47;;
1350;SDS011;669;50.206;9.998;2023-02-28T11:26:55;9.10;;;5.70;;
1350;SDS011;669;50.206;9.998;2023-02-28T11:29:24;5.57;;;4.97;;
1350;SDS011;669;50.206;9.998;2023-02-28T11:32:02;6.10;;;5.40;;
1350;SDS011;669;50.206;9.998;2023-02-28T11:34:43;6.90;;;5.90;;
1350;SDS011;669;50.206;9.998;2023-02-28T11:37:12;6.43;;;5.60;;
1350;SDS011;669;50.206;9.998;2023-02-28T11:39:42;6.90;;;5.20;;
1350;SDS011;669;50.206;9.998;2023-02-28T11:42:13;6.93;;;5.07;;
1350;SDS011;669;50.206;9.998;2023-02-28T11:45:11;7.63;;;5.60;;
1350;SDS011;669;50.206;9.998;2023-02-28T11:47:52;6.27;;;4.80;;
1350;SDS011;669;50.206;9.998;2023-02-28T11:50:33;5.90;;;5.37;;
1350;SDS011;669;50.206;9.998;2023-02-28T11:53:16;7.80;;;6.03;;
1350;SDS011;669;50.206;9.998;2023-02-28T11:55:52;5.70;;;5.20;;
1350;SDS011;669;50.206;9.998;2023-02-28T11:58:29;6.80;;;5.10;;
1350;SDS011;669;50.206;9.998;2023-02-28T12:01:09;11.57;;;5.93;;
1350;SDS011;669;50.206;9.998;2023-02-28T12:04:10;6.10;;;5.17;;
1350;SDS011;669;50.206;9.998;2023-02-28T12:06:45;5.97;;;5.40;;
1350;SDS011;669;50.206;9.998;2023-02-28T12:09:23;6.17;;;5.57;;
1350;SDS011;669;50.206;9.998;2023-02-28T12:12:02;6.10;;;5.50;;
1350;SDS011;669;50.206;9.998;2023-02-28T12:14:46;6.30;;;5.13;;
1350;SDS011;669;50.206;9.998;2023-02-28T12:17:41;5.83;;;5.17;;
1350;SDS011;669;50.206;9.998;2023-02-28T12:20:24;5.73;;;5.13;;
1350;SDS011;669;50.206;9.998;2023-02-28T12:23:00;6.30;;;5.47;;
1350;SDS011;669;50.206;9.998;2023-02-28T12:25:43;7.73;;;6.00;;
1350;SDS011;669;50.206;9.998;2023-02-28T12:28:23;6.53;;;5.60;;
1350;SDS011;669;50.206;9.998;2023-02-28T12:30:56;6.43;;;5.63;;
1350;SDS011;669;50.206;9.998;2023-02-28T12:33:28;5.77;;;5.10;;
1350;SDS011;669;50.206;9.998;2023-02-28T12:36:04;4.83;;;4.43;;
1350;SDS011;669;50.206;9.998;2023-02-28T12:38:39;7.30;;;5.83;;
1350;SDS011;669;50.206;9.998;2023-02-28T12:41:12;7.93;;;5.37;;
1350;SDS011;669;50.206;9.998;2023-02-28T12:43:43;6.67;;;5.97;;
1350;SDS011;669;50.206;9.998;2023-02-28T12:46:16;6.77;;;4.97;;
1350;SDS011;669;50.206;9.998;2023-02-28T12:48:50;6.70;;;5.10;;
1350;SDS011;669;50.206;9.998;2023-02-28T12:51:23;7.17;;;5.93;;
1350;SDS011;669;50.206;9.998;2023-02-28T12:53:55;4.70;;;4.30;;
1350;SDS011;669;50.206;9.998;2023-02-28T12:56:33;5.93;;;5.40;;
1350;SDS011;669;50.206;9.998;2023-02-28T12:59:10;5.20;;;4.70;;
1350;SDS011;669;50.206;9.998;2023-02-28T13:01:45;6.50;;;5.90;;
1350;SDS011;669;50.206;9.998;2023-02-28T13:07:34;6.60;;;5.43;;
1350;SDS011;669;50.206;9.998;2023-02-28T13:10:24;6.90;;;6.20;;
1350;SDS011;669;50.206;9.998;2023-02-28T13:13:06;6.60;;;5.27;;
1350;SDS011;669;50.206;9.998;2023-02-28T13:15:40;5.87;;;4.80;;
1350;SDS011;669;50.206;9.998;2023-02-28T13:18:27;6.10;;;5.60;;
1350;SDS011;669;50.206;9.998;2023-02-28T13:20:58;6.53;;;5.37;;
1350;SDS011;669;50.206;9.998;2023-02-28T13:23:40;5.50;;;5.00;;
1350;SDS011;669;50.206;9.998;2023-02-28T13:29:31;5.20;;;4.70;;
1350;SDS011;669;50.206;9.998;2023-02-28T13:32:20;6.17;;;5.20;;
1350;SDS011;669;50.206;9.998;2023-02-28T13:35:15;5.97;;;5.47;;
1350;SDS011;669;50.206;9.998;2023-02-28T13:38:12;6.67;;;5.63;;
1350;SDS011;669;50.206;9.998;2023-02-28T13:40:45;7.77;;;6.33;;
1350;SDS011;669;50.206;9.998;2023-02-28T13:43:13;7.03;;;6.27;;
1350;SDS011;669;50.206;9.998;2023-02-28T13:46:10;6.63;;;5.40;;
1350;SDS011;669;50.206;9.998;2023-02-28T13:48:39;7.53;;;5.77;;
1350;SDS011;669;50.206;9.998;2023-02-28T13:51:28;5.93;;;5.40;;
1350;SDS011;669;50.206;9.998;2023-02-28T13:54:13;7.40;;;6.53;;
1350;SDS011;669;50.206;9.998;2023-02-28T13:56:52;5.30;;;4.80;;
1350;SDS011;669;50.206;9.998;2023-02-28T13:59:33;5.97;;;5.40;;
1350;SDS011;669;50.206;9.998;2023-02-28T14:02:25;13.93;;;5.73;;
1350;SDS011;669;50.206;9.998;2023-02-28T14:05:12;6.57;;;5.83;;
1350;SDS011;669;50.206;9.998;2023-02-28T14:07:43;8.17;;;5.70;;
1350;SDS011;669;50.206;9.998;2023-02-28T14:10:21;7.80;;;5.60;;
1350;SDS011;669;50.206;9.998;2023-02-28T14:13:10;7.50;;;6.10;;
1350;SDS011;669;50.206;9.998;2023-02-28T14:15:49;6.97;;;5.80;;
1350;SDS011;669;50.206;9.998;2023-02-28T14:18:27;8.20;;;6.40;;
1350;SDS011;669;50.206;9.998;2023-02-28T14:20:58;7.00;;;6.30;;
1350;SDS011;669;50.206;9.998;2023-02-28T14:26:25;6.17;;;5.13;;
1350;SDS011;669;50.206;9.998;2023-02-28T14:29:10;7.63;;;6.60;;
1350;SDS011;669;50.206;9.998;2023-02-28T14:31:53;6.97;;;5.60;;
1350;SDS011;669;50.206;9.998;2023-02-28T14:37:11;7.63;;;5.50;;
1350;SDS011;669;50.206;9.998;2023-02-28T14:39:42;8.13;;;6.37;;
1350;SDS011;669;50.206;9.998;2023-02-28T14:42:30;6.83;;;6.13;;
1350;SDS011;669;50.206;9.998;2023-02-28T14:45:01;6.50;;;5.90;;
1350;SDS011;669;50.206;9.998;2023-02-28T14:47:31;9.03;;;6.03;;
1350;SDS011;669;50.206;9.998;2023-02-28T14:50:00;6.47;;;5.80;;
1350;SDS011;669;50.206;9.998;2023-02-28T14:52:31;8.43;;;6.60;;
1350;SDS011;669;50.206;9.998;2023-02-28T14:55:01;10.17;;;6.77;;
1350;SDS011;669;50.206;9.998;2023-02-28T14:57:33;6.93;;;6.03;;
1350;SDS011;669;50.206;9.998;2023-02-28T15:00:11;7.23;;;6.40;;
1350;SDS011;669;50.206;9.998;2023-02-28T15:02:43;5.57;;;5.03;;
1350;SDS011;669;50.206;9.998;2023-02-28T15:05:19;8.73;;;5.90;;
1350;SDS011;669;50.206;9.998;2023-02-28T15:08:00;7.83;;;7.13;;
1350;SDS011;669;50.206;9.998;2023-02-28T15:10:33;7.60;;;6.80;;
1350;SDS011;669;50.206;9.998;2023-02-28T15:13:02;7.83;;;7.00;;
1350;SDS011;669;50.206;9.998;2023-02-28T15:15:41;7.70;;;7.00;;
1350;SDS011;669;50.206;9.998;2023-02-28T15:18:30;6.80;;;5.80;;
1350;SDS011;669;50.206;9.998;2023-02-28T15:21:05;9.77;;;6.20;;
1350;SDS011;669;50.206;9.998;2023-02-28T15:23:35;8.00;;;6.33;;
1350;SDS011;669;50.206;9.998;2023-02-28T15:26:04;9.63;;;6.23;;
1350;SDS011;669;50.206;9.998;2023-02-28T15:28:32;6.73;;;6.13;;
1350;SDS011;669;50.206;9.998;2023-02-28T15:31:03;7.43;;;6.67;;
1350;SDS011;669;50.206;9.998;2023-02-28T15:33:51;6.40;;;5.80;;
1350;SDS011;669;50.206;9.998;2023-02-28T15:36:23;9.20;;;6.73;;
1350;SDS011;669;50.206;9.998;2023-02-28T15:38:54;9.37;;;7.17;;
1350;SDS011;669;50.206;9.998;2023-02-28T15:41:35;7.60;;;5.93;;
1350;SDS011;669;50.206;9.998;2023-02-28T15:44:15;7.83;;;6.87;;
1350;SDS011;669;50.206;9.998;2023-02-28T15:46:55;7.33;;;6.00;;
1350;SDS011;669;50.206;9.998;2023-02-28T15:49:26;7.27;;;6.57;;
1350;SDS011;669;50.206;9.998;2023-02-28T15:51:56;10.47;;;6.77;;
1350;SDS011;669;50.206;9.998;2023-02-28T15:54:27;9.47;;;6.80;;
1350;SDS011;669;50.206;9.998;2023-02-28T15:57:01;8.50;;;6.47;;
1350;SDS011;669;50.206;9.998;2023-02-28T15:59:35;6.90;;;5.83;;
1350;SDS011;669;50.206;9.998;2023-02-28T16:02:13;7.10;;;6.40;;
1350;SDS011;669;50.206;9.998;2023-02-28T16:04:57;12.83;;;6.30;;
1350;SDS011;669;50.206;9.998;2023-02-28T16:07:27;7.63;;;6.33;;
1350;SDS011;669;50.206;9.998;2023-02-28T16:09:55;7.13;;;5.10;;
1350;SDS011;669;50.206;9.998;2023-02-28T16:12:25;8.67;;;6.37;;
1350;SDS011;669;50.206;9.998;2023-02-28T16:14:55;7.17;;;6.00;;
1350;SDS011;669;50.206;9.998;2023-02-28T16:17:26;9.27;;;7.03;;
1350;SDS011;669;50.206;9.998;2023-02-28T16:19:56;9.57;;;7.03;;